sim
Sign-in with your pilot id or email,
or register
Callsign
Passwort

Schedule Details

Flight Number: DLH2781 (1)
Departure: Hurghada International Airport (HEGN) at 12:35
Arrival: Munich Airport (EDDM) at 17:15
Route: Lufthansa Passenger Schedule. Enter filed route here before submitting Pirep.

Weather Information
Getting current METAR information for HEGN 270800Z 33010KT CAVOK 31/16 Q1011 NOSIG
Getting current METAR information for EDDM 270850Z 21007KT 150V240 9999 FEW033 11/05 Q1005 NOSIG

Schedule Frequency

Route Map